Time;durP1;ratioP1;P1;durP2;ratioP2;P2;SDS_P1;SDS_P2;PMS_P1;PMS_P2;Temp;Humidity;BMP_temperature;BMP_pressure;BME280_temperature;BME280_humidity;BME280_pressure;Samples;Min_cycle;Max_cycle;Signal;HPM_P1;HPM_P2
2022/06/06 07:13:49;;;;;;;17.27;10.65;;;41.40;97.70;;;;;;6207855;22;20317;-86
2022/06/06 07:16:44;;;;;;;19.73;11.60;;;41.40;97.20;;;;;;6255820;22;20011;-87
2022/06/06 07:19:20;;;;;;;20.50;11.60;;;41.40;96.80;;;;;;6250777;22;20013;-87
2022/06/06 07:21:50;;;;;;;21.50;11.52;;;41.50;96.60;;;;;;6255230;22;20007;-86
2022/06/06 07:24:20;;;;;;;13.38;10.90;;;41.40;96.30;;;;;;6250102;22;20091;-87
2022/06/06 07:26:49;;;;;;;15.20;11.40;;;41.20;96.00;;;;;;6250599;22;20006;-88
2022/06/06 07:29:20;;;;;;;17.40;11.40;;;41.20;95.80;;;;;;6250257;22;20448;-87
2022/06/06 07:31:56;;;;;;;22.27;12.93;;;41.20;95.60;;;;;;6250421;22;20012;-88
2022/06/06 07:34:50;;;;;;;16.98;11.20;;;41.30;95.80;;;;;;6225089;22;20011;-88
2022/06/06 07:37:47;;;;;;;19.27;11.60;;;41.50;95.10;;;;;;6250430;22;20034;-88
2022/06/06 07:40:33;;;;;;;13.10;11.43;;;41.20;95.70;;;;;;6225182;22;20365;-89
2022/06/06 07:43:33;;;;;;;24.42;12.10;;;41.30;95.30;;;;;;6250473;22;20421;-88
2022/06/06 07:46:38;;;;;;;20.20;12.20;;;41.00;95.70;;;;;;6249946;22;20003;-87
2022/06/06 07:49:13;;;;;;;17.83;11.65;;;41.20;95.10;;;;;;6277808;22;20454;-87
2022/06/06 07:52:11;;;;;;;16.48;11.60;;;41.00;95.00;;;;;;6225113;22;20099;-89
2022/06/06 07:54:56;;;;;;;16.00;10.93;;;41.20;94.70;;;;;;6227530;22;20333;-89
2022/06/06 07:57:22;;;;;;;21.20;11.93;;;40.40;95.00;;;;;;6227515;22;20010;-95
2022/06/06 08:00:00;;;;;;;17.27;12.35;;;40.40;95.00;;;;;;6228170;22;20506;-90
2022/06/06 08:02:58;;;;;;;20.42;11.27;;;40.30;95.10;;;;;;6227632;22;20011;-93
2022/06/06 08:06:03;;;;;;;15.23;11.18;;;40.30;94.90;;;;;;6227798;22;20003;-90
2022/06/06 08:08:51;;;;;;;20.38;11.55;;;40.40;94.80;;;;;;6192616;22;20007;-92
2022/06/06 08:11:24;;;;;;;13.30;11.20;;;40.70;94.60;;;;;;6228779;22;20020;-94
2022/06/06 08:13:57;;;;;;;21.25;11.68;;;40.90;94.20;;;;;;6222311;23;20020;-92
2022/06/06 08:16:40;;;;;;;12.52;11.23;;;40.90;94.20;;;;;;6248005;23;20011;-92
2022/06/06 08:19:33;;;;;;;13.87;10.77;;;40.80;94.10;;;;;;6248129;23;20430;-91
2022/06/06 08:22:01;;;;;;;19.75;11.40;;;40.70;94.30;;;;;;6247856;23;20308;-92
2022/06/06 08:24:33;;;;;;;18.08;11.07;;;40.70;94.20;;;;;;6247659;22;20011;-93
2022/06/06 08:27:04;;;;;;;23.27;11.52;;;40.50;93.40;;;;;;6247669;23;20498;-92
2022/06/06 08:29:35;;;;;;;19.60;11.80;;;40.60;93.30;;;;;;6247484;23;20014;-92
2022/06/06 08:32:02;;;;;;;16.77;11.70;;;40.20;93.20;;;;;;6247566;23;20019;-92
2022/06/06 08:34:28;;;;;;;23.92;11.60;;;40.20;93.00;;;;;;6247654;22;20019;-91
2022/06/06 08:37:32;;;;;;;15.07;11.43;;;40.20;93.10;;;;;;6247351;23;20018;-93
2022/06/06 08:40:17;;;;;;;18.58;11.07;;;40.10;91.50;;;;;;6248009;23;20008;-90
2022/06/06 08:43:03;;;;;;;12.50;10.95;;;40.10;90.70;;;;;;6248456;23;20008;-91
2022/06/06 08:45:53;;;;;;;17.30;11.10;;;39.90;90.30;;;;;;6247698;23;20012;-90
2022/06/06 08:48:41;;;;;;;17.15;11.38;;;40.20;91.20;;;;;;6248296;23;20303;-90
2022/06/06 08:51:43;;;;;;;20.58;11.30;;;40.40;91.10;;;;;;6247406;23;20107;-92
2022/06/06 08:54:31;;;;;;;32.20;11.80;;;40.30;90.70;;;;;;6217531;23;20004;-92
2022/06/06 08:57:39;;;;;;;16.27;11.80;;;40.50;90.00;;;;;;6248914;23;20012;-90
2022/06/06 09:00:20;;;;;;;21.70;11.48;;;39.80;90.10;;;;;;6187832;23;20013;-90
2022/06/06 09:03:35;;;;;;;25.35;11.70;;;39.50;90.30;;;;;;6186734;23;20024;-91
2022/06/06 09:06:40;;;;;;;20.23;11.60;;;39.70;90.20;;;;;;6160005;23;20013;-90
2022/06/06 09:09:43;;;;;;;16.67;11.35;;;39.80;90.70;;;;;;6133256;23;20016;-92
2022/06/06 09:12:38;;;;;;;18.63;12.03;;;39.80;90.50;;;;;;6140640;23;20019;-90
2022/06/06 09:15:30;;;;;;;18.60;11.27;;;39.80;90.50;;;;;;6139473;23;20482;-90
2022/06/06 09:18:39;;;;;;;18.07;12.10;;;39.90;90.90;;;;;;6137819;23;20032;-90
2022/06/06 09:21:05;;;;;;;21.58;13.00;;;40.10;91.00;;;;;;6111277;23;20044;-89
2022/06/06 09:24:05;;;;;;;27.98;12.60;;;40.10;90.70;;;;;;6140486;23;20083;-90
2022/06/06 09:27:08;;;;;;;21.80;11.90;;;40.00;91.10;;;;;;6164410;23;20013;-90
2022/06/06 09:29:56;;;;;;;17.30;11.50;;;40.10;91.20;;;;;;6141068;23;20016;-89
2022/06/06 09:32:55;;;;;;;16.63;11.90;;;39.90;91.00;;;;;;6166420;23;20369;-91
2022/06/06 09:35:37;;;;;;;19.02;11.27;;;39.70;90.50;;;;;;6139159;23;20009;-92
2022/06/06 09:38:31;;;;;;;22.13;12.25;;;39.70;91.10;;;;;;6163514;23;20091;-91
2022/06/06 09:41:39;;;;;;;19.92;12.57;;;39.50;90.40;;;;;;6162759;23;20357;-91
2022/06/06 09:44:42;;;;;;;14.10;10.93;;;38.90;90.70;;;;;;6222257;23;20012;-90
2022/06/06 09:47:42;;;;;;;21.60;11.20;;;38.90;90.60;;;;;;6222535;23;20087;-90
2022/06/06 09:50:26;;;;;;;20.98;11.57;;;38.80;90.40;;;;;;6222102;23;20585;-92
2022/06/06 09:53:26;;;;;;;17.23;11.10;;;39.00;89.80;;;;;;6247166;22;20012;-93
2022/06/06 09:59:33;;;;;;;;;;;38.70;90.00;;;;;;6248954;23;20127;-89
2022/06/06 10:02:37;;;;;;;25.52;11.80;;;38.70;90.30;;;;;;6165439;23;19986;-90
2022/06/06 10:05:42;;;;;;;15.82;11.55;;;38.80;90.00;;;;;;6246659;23;20010;-90
2022/06/06 10:08:47;;;;;;;16.20;11.38;;;38.80;90.60;;;;;;6246212;23;20087;-89
2022/06/06 10:11:48;;;;;;;22.95;11.50;;;38.70;89.70;;;;;;6246421;23;20154;-92
2022/06/06 10:14:23;;;;;;;19.25;11.73;;;38.70;87.80;;;;;;6221370;23;20026;-91
2022/06/06 10:17:35;;;;;;;14.85;11.70;;;38.50;88.80;;;;;;6246569;23;20011;-89
2022/06/06 10:20:13;;;;;;;21.33;11.43;;;38.50;88.90;;;;;;6246880;23;20012;-89
2022/06/06 10:22:58;;;;;;;20.95;11.98;;;38.60;88.40;;;;;;6246475;23;20004;-90
2022/06/06 10:25:27;;;;;;;18.83;12.23;;;38.60;88.10;;;;;;6246530;23;20007;-92
2022/06/06 10:28:15;;;;;;;20.98;11.95;;;38.60;88.10;;;;;;6246406;23;20008;-92
2022/06/06 10:31:00;;;;;;;21.52;12.40;;;38.50;88.30;;;;;;6246694;23;20024;-92
2022/06/06 10:33:52;;;;;;;14.07;10.57;;;38.50;88.00;;;;;;6246497;23;20004;-92
2022/06/06 10:36:34;;;;;;;18.45;11.38;;;38.50;89.20;;;;;;6246524;22;20012;-92
2022/06/06 10:39:06;;;;;;;14.98;10.85;;;38.60;89.10;;;;;;6248117;23;20008;-92
2022/06/06 10:41:58;;;;;;;15.20;10.85;;;38.50;89.40;;;;;;6248056;23;20039;-93
2022/06/06 10:44:26;;;;;;;20.02;11.18;;;38.60;88.90;;;;;;6248132;23;20004;-93
2022/06/06 10:47:15;;;;;;;16.60;11.18;;;38.60;87.70;;;;;;6246874;23;20004;-94
2022/06/06 10:49:59;;;;;;;21.17;11.80;;;38.30;88.20;;;;;;6223104;23;20062;-93
2022/06/06 10:52:44;;;;;;;;;;;38.40;88.40;;;;;;6248810;22;20016;-93
2022/06/06 10:55:36;;;;;;;18.00;11.48;;;38.60;88.40;;;;;;6253312;22;19908;-93
2022/06/06 10:58:31;;;;;;;22.00;11.18;;;38.40;87.70;;;;;;6255516;23;20011;-90
2022/06/06 11:01:26;;;;;;;21.77;11.68;;;38.00;88.60;;;;;;6248560;23;20397;-91
2022/06/06 11:04:27;;;;;;;23.20;11.55;;;38.00;89.00;;;;;;6247106;22;20006;-91
2022/06/06 11:07:15;;;;;;;17.35;11.40;;;38.30;89.00;;;;;;6186806;23;20063;-89
2022/06/06 11:10:03;;;;;;;17.63;11.60;;;38.20;88.80;;;;;;6135692;23;20009;-90
2022/06/06 11:12:48;;;;;;;21.55;11.45;;;38.00;88.70;;;;;;6138469;23;20060;-89
2022/06/06 11:15:14;;;;;;;15.45;11.27;;;37.80;89.20;;;;;;6137624;23;20511;-92
2022/06/06 11:18:24;;;;;;;18.95;11.23;;;37.70;89.40;;;;;;6164311;23;20012;-92
2022/06/06 11:21:15;;;;;;;18.25;10.70;;;38.00;89.50;;;;;;6160872;23;20009;-92
2022/06/06 11:24:00;;;;;;;16.00;10.13;;;38.20;88.60;;;;;;6136213;23;20013;-90
2022/06/06 11:26:52;;;;;;;15.35;9.20;;;37.90;94.40;;;;;;6136433;23;20009;-95
2022/06/06 11:29:46;;;;;;;15.27;9.50;;;36.40;96.30;;;;;;6184520;23;20009;-93
2022/06/06 11:32:31;;;;;;;;;;;36.10;96.50;;;;;;6161896;23;20031;-93
2022/06/06 11:35:15;;;;;;;;;;;36.00;95.90;;;;;;6186543;23;19935;-92
2022/06/06 11:37:56;;;;;;;;;;;36.40;96.20;;;;;;6187314;23;19904;-93
2022/06/06 11:40:59;;;;;;;19.05;9.93;;;36.30;97.50;;;;;;6137799;23;19916;-90
2022/06/06 11:43:56;;;;;;;15.73;9.18;;;35.90;97.60;;;;;;6171466;23;20445;-90
2022/06/06 11:46:57;;;;;;;17.88;9.27;;;35.80;97.80;;;;;;6221002;23;20012;-90
2022/06/06 11:50:01;;;;;;;17.98;9.50;;;35.80;97.10;;;;;;6222244;23;20013;-90
2022/06/06 11:53:04;;;;;;;16.35;8.75;;;35.90;97.60;;;;;;6221482;23;20012;-92
2022/06/06 11:55:35;;;;;;;17.60;8.73;;;35.80;97.50;;;;;;6221122;23;20344;-91
2022/06/06 11:58:42;;;;;;;17.83;8.15;;;35.60;97.70;;;;;;6222100;23;20429;-92
2022/06/06 12:01:43;;;;;;;16.77;8.68;;;35.60;97.70;;;;;;6223474;23;20008;-92
2022/06/06 12:04:46;;;;;;;13.98;9.00;;;35.50;98.00;;;;;;6221655;23;20012;-93
2022/06/06 12:07:47;;;;;;;21.83;9.57;;;35.70;97.80;;;;;;6226449;23;20020;-92
2022/06/06 12:10:25;;;;;;;18.50;9.18;;;35.80;97.30;;;;;;6222382;23;20024;-91
2022/06/06 12:13:19;;;;;;;17.00;8.35;;;35.80;97.40;;;;;;6250479;22;20012;-91
2022/06/06 12:16:04;;;;;;;17.38;8.90;;;35.70;97.70;;;;;;6251008;22;20019;-91
2022/06/06 12:18:49;;;;;;;13.70;8.73;;;36.00;97.40;;;;;;6225326;22;20081;-87
2022/06/06 12:21:19;;;;;;;15.55;8.73;;;36.10;97.00;;;;;;6250585;22;20386;-85
2022/06/06 12:23:56;;;;;;;21.75;9.32;;;36.30;97.10;;;;;;6225032;22;20457;-89
2022/06/06 12:26:38;;;;;;;18.20;9.20;;;36.10;96.90;;;;;;6224763;22;20412;-88
2022/06/06 12:29:09;;;;;;;14.05;8.95;;;36.40;97.10;;;;;;6250481;22;20072;-90
2022/06/06 12:31:38;;;;;;;17.63;9.52;;;36.40;97.00;;;;;;6224607;22;20020;-90
2022/06/06 12:34:27;;;;;;;20.60;9.70;;;36.60;96.70;;;;;;6224722;22;20007;-88
2022/06/06 12:37:01;;;;;;;21.52;8.77;;;36.40;96.80;;;;;;6225027;22;20012;-90
2022/06/06 12:39:48;;;;;;;12.48;8.80;;;36.30;96.60;;;;;;6224434;22;20042;-92
2022/06/06 12:42:23;;;;;;;16.17;9.35;;;36.30;96.60;;;;;;6250183;22;20016;-92
2022/06/06 12:45:21;;;;;;;12.45;9.27;;;36.50;96.40;;;;;;6251279;22;20015;-91
2022/06/06 12:47:59;;;;;;;20.65;9.20;;;36.60;96.20;;;;;;6227615;22;20315;-91
2022/06/06 12:50:48;;;;;;;16.73;9.15;;;36.10;96.50;;;;;;6227573;22;20095;-90
2022/06/06 12:53:49;;;;;;;13.52;8.60;;;35.50;97.30;;;;;;6226024;22;20069;-89
2022/06/06 12:56:47;;;;;;;19.83;9.27;;;34.90;97.60;;;;;;6252206;22;20003;-91
2022/06/06 12:59:46;;;;;;;18.60;9.52;;;34.90;97.50;;;;;;6227909;22;20091;-91
2022/06/06 13:02:21;;;;;;;17.75;10.48;;;35.30;97.40;;;;;;6229310;22;20022;-92
2022/06/06 13:05:55;;;;;;;22.27;10.40;;;35.70;97.10;;;;;;6226439;22;19999;-91
2022/06/06 13:08:52;;;;;;;18.98;11.18;;;36.00;96.90;;;;;;6131275;23;20010;-93
2022/06/06 13:11:42;;;;;;;15.50;10.20;;;36.60;95.40;;;;;;6101953;23;20056;-90
2022/06/06 13:14:46;;;;;;;25.67;10.40;;;36.50;95.10;;;;;;6106013;23;20017;-91
2022/06/06 13:17:41;;;;;;;20.95;10.68;;;36.40;94.90;;;;;;6106305;23;20021;-92
2022/06/06 13:20:19;;;;;;;18.17;9.40;;;36.60;95.90;;;;;;6106601;23;20013;-91
2022/06/06 13:23:04;;;;;;;17.10;10.85;;;36.90;94.90;;;;;;6130983;23;20009;-90
2022/06/06 13:25:53;;;;;;;23.55;10.77;;;37.20;93.30;;;;;;6105989;23;20013;-90
2022/06/06 13:28:29;;;;;;;21.88;10.40;;;37.30;92.20;;;;;;6130111;23;20040;-91
2022/06/06 13:31:16;;;;;;;20.77;12.13;;;37.10;92.40;;;;;;6130169;23;20093;-91
2022/06/06 13:34:08;;;;;;;20.38;11.15;;;37.00;92.90;;;;;;6131595;23;20121;-91
2022/06/06 13:36:49;;;;;;;15.48;9.93;;;37.00;94.00;;;;;;6105780;23;20013;-91
2022/06/06 13:39:54;;;;;;;13.38;9.40;;;36.70;95.40;;;;;;6222436;22;20015;-91
2022/06/06 13:42:39;;;;;;;15.27;9.13;;;36.10;95.90;;;;;;6225524;22;20015;-88
2022/06/06 13:45:19;;;;;;;16.75;10.15;;;35.90;96.10;;;;;;6251261;22;20019;-91
2022/06/06 13:48:30;;;;;;;16.25;10.25;;;36.10;95.80;;;;;;6226289;22;20090;-91
2022/06/06 13:50:59;;;;;;;14.02;9.45;;;36.30;95.80;;;;;;6133540;23;20018;-93
2022/06/06 13:53:46;;;;;;;36.50;9.50;;;36.20;96.10;;;;;;6131527;23;20002;-93
2022/06/06 13:56:46;;;;;;;16.00;8.93;;;35.90;96.10;;;;;;6131972;23;20377;-90
2022/06/06 13:59:48;;;;;;;21.73;10.38;;;35.50;96.00;;;;;;6130863;23;20013;-90
2022/06/06 14:02:52;;;;;;;18.98;9.18;;;35.20;96.40;;;;;;6140172;23;20036;-88
2022/06/06 14:06:06;;;;;;;19.52;8.93;;;34.90;97.00;;;;;;6132006;23;20359;-88
2022/06/06 14:08:55;;;;;;;16.15;9.32;;;34.60;97.10;;;;;;6053422;23;20105;-88
2022/06/06 14:11:48;;;;;;;18.92;9.73;;;34.50;96.70;;;;;;6106393;23;20026;-88
2022/06/06 14:14:18;;;;;;;21.83;9.20;;;34.50;96.40;;;;;;6101810;23;20025;-87
2022/06/06 14:16:50;;;;;;;25.02;11.38;;;34.40;96.60;;;;;;6130672;23;20017;-88
2022/06/06 14:19:23;;;;;;;17.13;9.98;;;34.60;96.80;;;;;;6130730;23;20032;-87
2022/06/06 14:21:56;;;;;;;13.63;9.82;;;34.50;97.00;;;;;;6130905;23;20033;-89
2022/06/06 14:24:27;;;;;;;17.53;9.33;;;34.50;97.40;;;;;;6172689;22;20015;-89
2022/06/06 14:27:18;;;;;;;16.63;8.48;;;34.60;98.00;;;;;;6224788;22;20712;-88
2022/06/06 14:29:51;;;;;;;15.35;9.30;;;34.50;98.80;;;;;;6224723;22;20433;-87
2022/06/06 14:32:24;;;;;;;17.90;8.15;;;34.50;98.30;;;;;;6250958;22;20016;-88
2022/06/06 14:34:53;;;;;;;20.75;9.10;;;34.10;98.60;;;;;;6225059;22;20003;-89
2022/06/06 14:37:34;;;;;;;16.70;9.05;;;34.10;98.90;;;;;;6225100;22;20030;-91
2022/06/06 14:40:12;;;;;;;18.05;9.15;;;34.10;98.50;;;;;;6224806;22;20011;-89
2022/06/06 14:42:44;;;;;;;17.73;8.85;;;33.90;99.20;;;;;;6225081;22;20003;-91
2022/06/06 14:45:13;;;;;;;17.80;8.10;;;33.70;99.30;;;;;;6224783;22;20012;-90
2022/06/06 14:47:51;;;;;;;17.50;8.45;;;33.60;99.40;;;;;;6224680;22;19999;-91
2022/06/06 14:53:24;;;;;;;19.65;6.72;;;33.50;99.90;;;;;;6251373;22;20012;-89
2022/06/06 14:55:56;;;;;;;20.17;7.57;;;33.30;99.90;;;;;;6225973;22;20042;-90
2022/06/06 14:58:27;;;;;;;22.35;7.22;;;33.00;99.90;;;;;;6226151;22;20015;-91
2022/06/06 15:01:19;;;;;;;19.27;8.02;;;33.00;99.90;;;;;;6225976;22;20038;-89
2022/06/06 15:03:49;;;;;;;22.75;7.68;;;33.20;99.90;;;;;;6225613;22;20090;-89
2022/06/06 15:06:22;;;;;;;18.33;7.22;;;33.20;99.90;;;;;;6225738;22;20003;-88
2022/06/06 15:09:27;;;;;;;18.08;6.88;;;33.30;99.80;;;;;;6225700;22;20128;-88
2022/06/06 15:11:54;;;;;;;13.52;6.10;;;33.40;99.90;;;;;;6175173;22;20019;-90
2022/06/06 15:14:33;;;;;;;17.55;7.70;;;33.40;99.90;;;;;;6245710;23;20012;-89
2022/06/06 15:17:04;;;;;;;17.02;6.25;;;33.10;99.90;;;;;;6246054;23;20480;-91
2022/06/06 15:19:48;;;;;;;17.67;7.35;;;32.90;99.90;;;;;;6220973;23;20014;-92
2022/06/06 15:22:28;;;;;;;13.13;6.22;;;32.90;99.50;;;;;;6246253;23;20012;-90
2022/06/06 15:24:56;;;;;;;12.05;6.32;;;33.00;99.90;;;;;;6245840;23;20008;-90
2022/06/06 15:27:22;;;;;;;14.07;6.45;;;32.90;99.60;;;;;;6245980;23;20402;-90
2022/06/06 15:30:08;;;;;;;12.23;6.25;;;32.90;99.40;;;;;;6220641;23;20016;-90
2022/06/06 15:33:01;;;;;;;18.15;6.28;;;32.90;99.60;;;;;;6245902;23;20012;-92
2022/06/06 15:36:03;;;;;;;21.50;6.00;;;33.00;99.90;;;;;;6246184;23;20426;-91
2022/06/06 15:38:47;;;;;;;18.25;5.80;;;32.90;99.90;;;;;;6220530;23;20091;-91
2022/06/06 15:41:32;;;;;;;15.47;5.77;;;33.00;99.90;;;;;;6220666;23;20429;-93
2022/06/06 15:44:02;;;;;;;17.08;6.43;;;33.20;99.90;;;;;;6221561;23;20095;-92
2022/06/06 15:46:50;;;;;;;16.80;7.13;;;33.00;99.10;;;;;;6221292;23;20023;-91
2022/06/06 15:49:28;;;;;;;17.25;6.43;;;33.00;98.90;;;;;;6221433;23;20330;-93
2022/06/06 15:52:20;;;;;;;17.63;6.55;;;32.90;98.90;;;;;;6246293;23;20446;-91
2022/06/06 15:55:18;;;;;;;18.60;7.05;;;32.80;98.50;;;;;;6221019;23;20035;-93
2022/06/06 15:58:17;;;;;;;19.48;7.82;;;32.80;98.40;;;;;;6220785;23;20013;-91
2022/06/06 16:01:21;;;;;;;13.80;6.90;;;32.60;97.80;;;;;;6221604;23;20012;-92
2022/06/06 16:04:00;;;;;;;21.20;7.05;;;32.60;98.20;;;;;;6221063;23;20012;-94
2022/06/06 16:06:32;;;;;;;18.98;6.88;;;32.40;98.10;;;;;;6220749;23;20373;-94
2022/06/06 16:09:17;;;;;;;16.63;7.20;;;32.40;98.60;;;;;;6245813;23;20019;-93
2022/06/06 16:12:06;;;;;;;20.77;6.70;;;32.20;98.70;;;;;;6245731;23;20016;-93
2022/06/06 16:14:57;;;;;;;13.57;6.75;;;32.10;99.10;;;;;;6221584;23;20020;-93
2022/06/06 16:17:36;;;;;;;19.35;6.68;;;32.00;99.00;;;;;;6247575;23;20042;-91
2022/06/06 16:20:21;;;;;;;9.43;5.57;;;32.00;99.50;;;;;;6247617;23;20012;-92
2022/06/06 16:23:00;;;;;;;18.50;6.18;;;31.80;99.30;;;;;;6248433;23;20004;-93
2022/06/06 16:25:47;;;;;;;19.95;5.80;;;31.90;99.40;;;;;;6247498;23;20008;-93
2022/06/06 16:28:29;;;;;;;16.35;6.50;;;31.90;99.30;;;;;;6247620;23;20091;-93
2022/06/06 16:30:59;;;;;;;17.77;6.07;;;31.90;98.90;;;;;;6247422;23;20023;-93
2022/06/06 16:33:33;;;;;;;14.35;6.30;;;31.80;99.20;;;;;;6247456;23;20342;-93
2022/06/06 16:36:04;;;;;;;23.65;6.35;;;31.80;99.50;;;;;;6247577;23;20090;-94
2022/06/06 16:38:51;;;;;;;12.85;5.10;;;31.50;99.90;;;;;;6247593;23;20075;-92
2022/06/06 16:47:55;;;;;;;16.85;5.88;;;31.20;99.90;;;;;;6221816;23;20012;-94
2022/06/06 16:51:00;;;;;;;12.60;5.50;;;31.20;99.30;;;;;;6247221;23;20020;-93
2022/06/06 16:53:45;;;;;;;;;;;30.90;99.30;;;;;;6222940;23;20008;-94
2022/06/06 16:56:29;;;;;;;17.00;6.60;;;30.90;99.50;;;;;;6222353;22;19961;-93
2022/06/06 16:59:04;;;;;;;17.98;5.60;;;30.70;99.40;;;;;;6221870;23;20019;-91
2022/06/06 17:01:49;;;;;;;14.02;5.63;;;30.60;99.80;;;;;;6247665;23;20380;-92
2022/06/06 17:04:20;;;;;;;13.23;4.45;;;30.70;99.60;;;;;;6222509;23;20012;-92
2022/06/06 17:10:01;;;;;;;14.38;4.75;;;30.50;99.90;;;;;;6247632;22;20016;-92
2022/06/06 17:12:41;;;;;;;11.88;5.47;;;30.30;99.90;;;;;;6222391;23;20095;-92
2022/06/06 17:15:15;;;;;;;16.95;4.97;;;30.10;99.90;;;;;;6221979;23;20070;-92
2022/06/06 17:17:57;;;;;;;12.10;4.72;;;30.00;99.90;;;;;;6222203;23;20019;-91
2022/06/06 17:20:35;;;;;;;21.77;4.97;;;29.90;99.90;;;;;;6222019;23;20016;-92
2022/06/06 17:23:05;;;;;;;15.88;5.07;;;29.80;99.90;;;;;;6247146;23;20452;-92
2022/06/06 17:25:45;;;;;;;19.25;5.90;;;29.80;99.90;;;;;;6222466;23;20016;-91
2022/06/06 17:28:40;;;;;;;17.52;4.43;;;29.80;99.90;;;;;;6255448;23;20086;-93
2022/06/06 17:31:10;;;;;;;14.73;4.45;;;29.60;99.90;;;;;;6231216;23;20036;-91
2022/06/06 17:33:49;;;;;;;13.23;4.38;;;29.40;99.90;;;;;;6232077;23;20015;-93
2022/06/06 17:36:34;;;;;;;15.00;4.70;;;29.40;99.90;;;;;;6230310;23;20008;-92
2022/06/06 17:39:19;;;;;;;19.45;4.45;;;29.20;99.90;;;;;;6254934;23;20004;-91
2022/06/06 17:42:07;;;;;;;12.90;3.70;;;29.20;99.90;;;;;;6229619;23;20012;-92
2022/06/06 17:45:01;;;;;;;16.15;3.83;;;29.10;99.90;;;;;;6230616;23;20345;-93
2022/06/06 17:48:08;;;;;;;9.95;3.60;;;28.90;99.90;;;;;;6255505;23;20377;-94
2022/06/06 17:50:34;;;;;;;12.93;3.22;;;28.80;99.90;;;;;;6254163;23;20008;-90
2022/06/06 17:53:13;;;;;;;16.40;3.30;;;28.40;99.90;;;;;;6227831;23;20042;-89
2022/06/06 17:56:04;;;;;;;12.70;2.70;;;28.30;99.90;;;;;;6227443;23;20086;-90
2022/06/06 17:59:01;;;;;;;13.90;3.35;;;28.20;99.90;;;;;;6228862;23;20434;-88
2022/06/06 18:02:16;;;;;;;18.25;3.47;;;28.10;99.90;;;;;;6254560;23;20086;-89
2022/06/06 18:05:00;;;;;;;19.17;3.42;;;28.00;99.90;;;;;;6253870;23;20064;-89
2022/06/06 18:07:54;;;;;;;19.53;4.30;;;27.90;99.90;;;;;;6253398;23;20004;-90
2022/06/06 18:10:28;;;;;;;16.35;3.13;;;27.70;99.90;;;;;;6229211;23;20031;-89
2022/06/06 18:13:18;;;;;;;10.47;2.93;;;27.60;99.90;;;;;;6232710;22;20007;-90
2022/06/06 18:16:02;;;;;;;18.98;4.40;;;27.40;99.90;;;;;;6233919;22;20094;-89
2022/06/06 18:18:43;;;;;;;16.17;3.60;;;27.50;99.90;;;;;;6231041;22;20008;-89
2022/06/06 18:21:18;;;;;;;16.92;3.92;;;27.30;99.90;;;;;;6234085;22;20011;-94
2022/06/06 18:24:20;;;;;;;19.00;3.53;;;27.30;99.90;;;;;;6235427;22;20004;-93
2022/06/06 18:27:19;;;;;;;15.95;4.13;;;27.30;99.90;;;;;;6112543;23;20084;-92
2022/06/06 18:29:57;;;;;;;17.73;3.72;;;27.30;99.90;;;;;;6021488;23;20051;-90
2022/06/06 18:32:35;;;;;;;12.90;3.90;;;27.10;99.90;;;;;;6021866;23;20019;-90
2022/06/06 18:35:03;;;;;;;13.45;4.55;;;27.10;99.90;;;;;;6021857;23;20341;-91
2022/06/06 18:37:41;;;;;;;13.85;3.80;;;26.90;99.90;;;;;;6020854;23;20035;-91
2022/06/06 18:40:17;;;;;;;19.17;4.40;;;27.00;99.90;;;;;;6018561;23;20019;-92
2022/06/06 18:42:50;;;;;;;12.88;4.25;;;27.00;99.90;;;;;;6015441;23;20105;-91
2022/06/06 18:45:26;;;;;;;15.90;4.53;;;26.80;99.90;;;;;;6038877;23;20034;-91
2022/06/06 18:47:58;;;;;;;12.23;3.80;;;26.80;99.90;;;;;;6015670;23;20007;-89
2022/06/06 18:50:32;;;;;;;18.02;4.40;;;26.70;99.90;;;;;;6015574;23;20022;-92
2022/06/06 18:53:13;;;;;;;16.45;4.22;;;26.80;99.90;;;;;;6015268;23;20011;-90
2022/06/06 18:55:48;;;;;;;17.77;4.93;;;26.80;99.90;;;;;;6015441;23;20011;-90
2022/06/06 18:58:33;;;;;;;12.77;3.92;;;26.70;99.90;;;;;;6013162;23;20011;-91
2022/06/06 19:01:19;;;;;;;19.73;4.40;;;26.60;99.90;;;;;;6018955;23;20349;-90
2022/06/06 19:04:01;;;;;;;16.25;4.75;;;26.60;99.90;;;;;;6106721;23;20068;-91
2022/06/06 19:06:37;;;;;;;19.38;4.47;;;26.60;99.90;;;;;;6182450;22;20012;-91
2022/06/06 19:09:30;;;;;;;18.67;4.88;;;26.70;99.90;;;;;;6226691;22;20053;-91
2022/06/06 19:12:40;;;;;;;15.55;4.55;;;26.70;99.90;;;;;;6225824;22;20023;-91
2022/06/06 19:15:24;;;;;;;13.55;4.63;;;26.60;99.90;;;;;;6105629;23;20041;-91
2022/06/06 19:17:55;;;;;;;12.30;4.47;;;26.50;99.90;;;;;;6106156;23;20076;-91
2022/06/06 19:20:26;;;;;;;15.15;4.10;;;26.40;99.90;;;;;;6106240;23;20021;-91
2022/06/06 19:23:01;;;;;;;21.73;4.57;;;26.30;99.90;;;;;;6105890;23;20010;-92
2022/06/06 19:25:30;;;;;;;18.75;4.57;;;26.30;99.90;;;;;;6105952;23;20014;-90
2022/06/06 19:28:07;;;;;;;18.15;5.60;;;26.30;99.90;;;;;;6105978;23;20006;-91
2022/06/06 19:30:34;;;;;;;16.52;4.15;;;26.40;99.90;;;;;;6105777;23;20045;-90
2022/06/06 19:33:19;;;;;;;14.68;3.58;;;26.30;99.90;;;;;;6105859;23;20056;-91
2022/06/06 19:35:56;;;;;;;20.23;4.07;;;26.30;99.90;;;;;;6106033;23;20052;-90
2022/06/06 19:38:22;;;;;;;21.13;4.38;;;26.20;99.90;;;;;;6105939;23;20016;-90
2022/06/06 19:40:57;;;;;;;17.63;5.18;;;26.20;99.90;;;;;;6105741;23;20068;-91
2022/06/06 19:43:25;;;;;;;17.20;4.57;;;26.10;99.90;;;;;;6105705;23;20014;-91
2022/06/06 19:46:02;;;;;;;17.45;4.47;;;26.00;99.90;;;;;;6130409;23;20005;-91
2022/06/06 19:48:44;;;;;;;21.02;4.65;;;26.00;99.90;;;;;;6106743;23;20032;-91
2022/06/06 19:51:13;;;;;;;18.23;4.25;;;26.00;99.90;;;;;;6118331;22;20043;-91
2022/06/06 19:53:59;;;;;;;13.50;4.10;;;26.00;99.90;;;;;;6227334;22;20333;-92
2022/06/06 19:57:00;;;;;;;15.95;4.43;;;26.00;99.90;;;;;;6228000;22;20098;-91
2022/06/06 19:59:56;;;;;;;18.50;5.22;;;26.00;99.90;;;;;;6102908;23;20006;-90
2022/06/06 20:02:56;;;;;;;13.95;4.93;;;26.00;99.90;;;;;;6123893;23;20020;-91
2022/06/06 20:05:35;;;;;;;16.05;4.47;;;25.90;99.90;;;;;;6116090;23;20009;-90
2022/06/06 20:08:23;;;;;;;22.15;4.00;;;25.90;99.90;;;;;;6102919;23;20017;-92
2022/06/06 20:11:14;;;;;;;18.98;4.95;;;26.00;99.90;;;;;;6103064;23;20021;-91
2022/06/06 20:13:52;;;;;;;22.60;4.68;;;26.00;99.90;;;;;;6102659;23;20072;-90
2022/06/06 20:16:37;;;;;;;20.27;5.53;;;26.00;99.90;;;;;;6103540;23;20014;-90
2022/06/06 20:19:37;;;;;;;16.45;4.75;;;25.90;99.90;;;;;;6103164;23;20010;-90
2022/06/06 20:22:26;;;;;;;15.10;4.20;;;25.90;99.90;;;;;;6117415;23;20073;-89
2022/06/06 20:25:02;;;;;;;20.00;5.53;;;25.80;99.90;;;;;;6080005;23;20025;-91
2022/06/06 20:27:44;;;;;;;23.95;5.10;;;25.90;99.90;;;;;;6107978;23;20032;-92
2022/06/06 20:30:32;;;;;;;16.75;4.15;;;25.80;99.90;;;;;;6103136;23;20033;-90
2022/06/06 20:33:20;;;;;;;22.58;5.22;;;25.80;99.90;;;;;;6102942;23;20089;-90
2022/06/06 20:36:15;;;;;;;13.82;5.07;;;25.90;99.90;;;;;;6112467;23;20005;-91
2022/06/06 20:39:14;;;;;;;13.70;4.20;;;25.90;99.90;;;;;;6192062;23;20425;-91
2022/06/06 20:41:43;;;;;;;21.17;4.38;;;25.80;99.90;;;;;;6201818;23;20091;-90
2022/06/06 20:44:21;;;;;;;24.38;5.15;;;25.80;99.90;;;;;;6192002;23;20024;-91
2022/06/06 20:47:01;;;;;;;23.48;5.20;;;25.80;99.90;;;;;;6217061;23;20015;-91
2022/06/06 20:49:32;;;;;;;22.60;4.90;;;25.80;99.90;;;;;;6192521;23;20033;-91
2022/06/06 20:52:07;;;;;;;16.30;5.00;;;25.80;99.90;;;;;;6196345;23;20016;-94
2022/06/06 20:54:53;;;;;;;20.67;5.55;;;25.70;99.90;;;;;;6201163;23;20088;-93
2022/06/06 20:57:31;;;;;;;20.25;5.00;;;25.80;99.90;;;;;;6196734;23;20032;-92
2022/06/06 21:00:00;;;;;;;19.65;4.72;;;25.80;99.90;;;;;;6191209;23;20013;-92
2022/06/06 21:02:30;;;;;;;18.90;4.90;;;25.80;99.90;;;;;;6191831;23;20112;-93
2022/06/06 21:05:00;;;;;;;15.50;4.90;;;25.70;99.90;;;;;;6193467;23;20019;-91
2022/06/06 21:07:31;;;;;;;21.90;4.85;;;25.70;99.90;;;;;;6191905;23;20327;-88
2022/06/06 21:10:09;;;;;;;20.55;4.40;;;25.60;99.90;;;;;;6191865;23;20013;-89
2022/06/06 21:12:39;;;;;;;28.73;5.40;;;25.60;99.90;;;;;;6192272;22;20047;-90
2022/06/06 21:15:07;;;;;;;18.05;4.55;;;25.50;99.90;;;;;;6227173;22;20015;-89
2022/06/06 21:17:34;;;;;;;13.95;4.95;;;25.50;99.90;;;;;;6226628;22;20020;-89
2022/06/06 21:20:01;;;;;;;21.40;4.47;;;25.50;99.90;;;;;;6226864;22;20011;-88
2022/06/06 21:22:28;;;;;;;20.77;4.70;;;25.60;99.90;;;;;;6227235;22;20333;-87
2022/06/06 21:24:58;;;;;;;17.73;4.80;;;25.50;99.90;;;;;;6227245;22;20008;-90
2022/06/06 21:27:24;;;;;;;17.92;5.40;;;25.50;99.90;;;;;;6227043;22;20012;-89
2022/06/06 21:29:51;;;;;;;25.10;5.90;;;25.50;99.90;;;;;;6227274;22;20007;-90
2022/06/06 21:32:20;;;;;;;18.70;5.55;;;25.50;99.90;;;;;;6226681;22;20008;-90